sensor_id;sensor_type;location;lat;lon;timestamp;temperature;humidity
79356;SHT31;68825;51.978;5.654;2023-04-01T00:01:25;12.6;77.5
79356;SHT31;68825;51.978;5.654;2023-04-01T00:03:54;12.6;77.7
79356;SHT31;68825;51.978;5.654;2023-04-01T00:06:24;12.6;77.8
79356;SHT31;68825;51.978;5.654;2023-04-01T00:08:52;12.6;77.9
79356;SHT31;68825;51.978;5.654;2023-04-01T00:11:23;12.6;77.6
79356;SHT31;68825;51.978;5.654;2023-04-01T00:13:53;12.6;77.5
79356;SHT31;68825;51.978;5.654;2023-04-01T00:16:22;12.6;77.5
79356;SHT31;68825;51.978;5.654;2023-04-01T00:18:52;12.6;77.4
79356;SHT31;68825;51.978;5.654;2023-04-01T00:21:22;12.6;77.4
79356;SHT31;68825;51.978;5.654;2023-04-01T00:23:51;12.6;77.5
79356;SHT31;68825;51.978;5.654;2023-04-01T00:26:20;12.6;77.4
79356;SHT31;68825;51.978;5.654;2023-04-01T00:28:50;12.6;77.2
79356;SHT31;68825;51.978;5.654;2023-04-01T00:31:19;12.6;77.5
79356;SHT31;68825;51.978;5.654;2023-04-01T00:33:48;12.6;77.4
79356;SHT31;68825;51.978;5.654;2023-04-01T00:36:19;12.6;77.4
79356;SHT31;68825;51.978;5.654;2023-04-01T00:38:49;12.6;77.3
79356;SHT31;68825;51.978;5.654;2023-04-01T00:41:19;12.6;77.4
79356;SHT31;68825;51.978;5.654;2023-04-01T00:43:50;12.7;77.3
79356;SHT31;68825;51.978;5.654;2023-04-01T00:46:21;12.7;77.0
79356;SHT31;68825;51.978;5.654;2023-04-01T00:48:53;12.7;77.2
79356;SHT31;68825;51.978;5.654;2023-04-01T00:51:27;12.7;77.2
79356;SHT31;68825;51.978;5.654;2023-04-01T00:53:58;12.7;77.4
79356;SHT31;68825;51.978;5.654;2023-04-01T00:56:32;12.7;77.3
79356;SHT31;68825;51.978;5.654;2023-04-01T00:59:08;12.7;77.3
79356;SHT31;68825;51.978;5.654;2023-04-01T01:01:38;12.7;77.4
79356;SHT31;68825;51.978;5.654;2023-04-01T01:04:22;12.7;77.5
79356;SHT31;68825;51.978;5.654;2023-04-01T01:07:03;12.7;77.5
79356;SHT31;68825;51.978;5.654;2023-04-01T01:09:42;12.7;77.8
79356;SHT31;68825;51.978;5.654;2023-04-01T01:12:17;12.7;77.8
79356;SHT31;68825;51.978;5.654;2023-04-01T01:15:03;12.7;77.4
79356;SHT31;68825;51.978;5.654;2023-04-01T01:17:47;12.7;77.3
79356;SHT31;68825;51.978;5.654;2023-04-01T01:21:21;12.7;77.6
79356;SHT31;68825;51.978;5.654;2023-04-01T01:24:10;12.6;77.2
79356;SHT31;68825;51.978;5.654;2023-04-01T01:26:47;12.6;77.3
79356;SHT31;68825;51.978;5.654;2023-04-01T01:34:26;12.6;77.2
79356;SHT31;68825;51.978;5.654;2023-04-01T01:37:02;12.6;76.7
79356;SHT31;68825;51.978;5.654;2023-04-01T01:39:36;12.6;76.7
79356;SHT31;68825;51.978;5.654;2023-04-01T01:42:09;12.6;76.4
79356;SHT31;68825;51.978;5.654;2023-04-01T01:44:43;12.6;76.1
79356;SHT31;68825;51.978;5.654;2023-04-01T01:47:14;12.6;75.9
79356;SHT31;68825;51.978;5.654;2023-04-01T01:49:44;12.6;76.0
79356;SHT31;68825;51.978;5.654;2023-04-01T01:52:14;12.6;76.1
79356;SHT31;68825;51.978;5.654;2023-04-01T01:54:49;12.6;76.1
79356;SHT31;68825;51.978;5.654;2023-04-01T01:57:22;12.6;75.7
79356;SHT31;68825;51.978;5.654;2023-04-01T01:59:55;12.6;75.9
79356;SHT31;68825;51.978;5.654;2023-04-01T02:02:26;12.5;75.5
79356;SHT31;68825;51.978;5.654;2023-04-01T02:04:59;12.5;75.8
79356;SHT31;68825;51.978;5.654;2023-04-01T02:07:33;12.5;75.9
79356;SHT31;68825;51.978;5.654;2023-04-01T02:10:04;12.5;75.7
79356;SHT31;68825;51.978;5.654;2023-04-01T02:12:36;12.5;76.0
79356;SHT31;68825;51.978;5.654;2023-04-01T02:15:08;12.5;76.1
79356;SHT31;68825;51.978;5.654;2023-04-01T02:17:40;12.5;76.2
79356;SHT31;68825;51.978;5.654;2023-04-01T02:20:15;12.5;76.5
79356;SHT31;68825;51.978;5.654;2023-04-01T02:22:48;12.5;76.7
79356;SHT31;68825;51.978;5.654;2023-04-01T02:25:21;12.5;76.5
79356;SHT31;68825;51.978;5.654;2023-04-01T02:27:52;12.5;76.6
79356;SHT31;68825;51.978;5.654;2023-04-01T02:30:23;12.5;76.4
79356;SHT31;68825;51.978;5.654;2023-04-01T02:32:53;12.5;76.5
79356;SHT31;68825;51.978;5.654;2023-04-01T02:35:24;12.4;76.9
79356;SHT31;68825;51.978;5.654;2023-04-01T02:37:54;12.4;76.8
79356;SHT31;68825;51.978;5.654;2023-04-01T02:40:23;12.4;76.7
79356;SHT31;68825;51.978;5.654;2023-04-01T02:42:52;12.4;76.7
79356;SHT31;68825;51.978;5.654;2023-04-01T02:45:20;12.4;76.8
79356;SHT31;68825;51.978;5.654;2023-04-01T02:47:49;12.3;76.9
79356;SHT31;68825;51.978;5.654;2023-04-01T02:50:18;12.3;77.1
79356;SHT31;68825;51.978;5.654;2023-04-01T02:52:46;12.3;77.1
79356;SHT31;68825;51.978;5.654;2023-04-01T02:55:16;12.3;76.9
79356;SHT31;68825;51.978;5.654;2023-04-01T02:57:45;12.3;77.0
79356;SHT31;68825;51.978;5.654;2023-04-01T03:00:15;12.3;76.9
79356;SHT31;68825;51.978;5.654;2023-04-01T03:02:45;12.3;77.1
79356;SHT31;68825;51.978;5.654;2023-04-01T03:05:14;12.3;77.3
79356;SHT31;68825;51.978;5.654;2023-04-01T03:07:45;12.2;77.1
79356;SHT31;68825;51.978;5.654;2023-04-01T03:10:14;12.2;77.1
79356;SHT31;68825;51.978;5.654;2023-04-01T03:12:43;12.2;77.2
79356;SHT31;68825;51.978;5.654;2023-04-01T03:15:13;12.2;77.0
79356;SHT31;68825;51.978;5.654;2023-04-01T03:17:43;12.2;76.8
79356;SHT31;68825;51.978;5.654;2023-04-01T03:20:13;12.2;76.8
79356;SHT31;68825;51.978;5.654;2023-04-01T03:22:42;12.2;76.8
79356;SHT31;68825;51.978;5.654;2023-04-01T03:25:12;12.2;76.9
79356;SHT31;68825;51.978;5.654;2023-04-01T03:27:41;12.2;77.1
79356;SHT31;68825;51.978;5.654;2023-04-01T03:30:10;12.2;76.9
79356;SHT31;68825;51.978;5.654;2023-04-01T03:32:39;12.2;76.9
79356;SHT31;68825;51.978;5.654;2023-04-01T03:35:09;12.2;77.1
79356;SHT31;68825;51.978;5.654;2023-04-01T03:37:38;12.2;76.9
79356;SHT31;68825;51.978;5.654;2023-04-01T03:40:07;12.2;77.3
79356;SHT31;68825;51.978;5.654;2023-04-01T03:42:36;12.2;77.2
79356;SHT31;68825;51.978;5.654;2023-04-01T03:45:05;12.2;76.6
79356;SHT31;68825;51.978;5.654;2023-04-01T03:47:35;12.2;76.5
79356;SHT31;68825;51.978;5.654;2023-04-01T03:50:06;12.2;76.8
79356;SHT31;68825;51.978;5.654;2023-04-01T03:52:35;12.2;76.9
79356;SHT31;68825;51.978;5.654;2023-04-01T03:55:04;12.2;77.0
79356;SHT31;68825;51.978;5.654;2023-04-01T03:57:32;12.2;77.0
79356;SHT31;68825;51.978;5.654;2023-04-01T04:00:01;12.2;76.9
79356;SHT31;68825;51.978;5.654;2023-04-01T04:02:30;12.1;76.9
79356;SHT31;68825;51.978;5.654;2023-04-01T04:05:00;12.1;77.2
79356;SHT31;68825;51.978;5.654;2023-04-01T04:07:29;12.1;77.3
79356;SHT31;68825;51.978;5.654;2023-04-01T04:09:57;12.1;77.2
79356;SHT31;68825;51.978;5.654;2023-04-01T04:12:29;12.1;77.2
79356;SHT31;68825;51.978;5.654;2023-04-01T04:14:57;12.1;77.2
79356;SHT31;68825;51.978;5.654;2023-04-01T04:17:28;12.1;77.5
79356;SHT31;68825;51.978;5.654;2023-04-01T04:19:56;12.0;77.7
79356;SHT31;68825;51.978;5.654;2023-04-01T04:22:27;12.0;77.8
79356;SHT31;68825;51.978;5.654;2023-04-01T04:24:55;12.0;77.9
79356;SHT31;68825;51.978;5.654;2023-04-01T04:27:24;12.0;78.2
79356;SHT31;68825;51.978;5.654;2023-04-01T04:29:53;12.0;78.4
79356;SHT31;68825;51.978;5.654;2023-04-01T04:32:21;12.0;78.5
79356;SHT31;68825;51.978;5.654;2023-04-01T04:34:50;11.9;78.6
79356;SHT31;68825;51.978;5.654;2023-04-01T04:37:18;11.9;78.7
79356;SHT31;68825;51.978;5.654;2023-04-01T04:39:47;12.0;78.6
79356;SHT31;68825;51.978;5.654;2023-04-01T04:42:15;12.0;78.5
79356;SHT31;68825;51.978;5.654;2023-04-01T04:44:44;12.0;78.8
79356;SHT31;68825;51.978;5.654;2023-04-01T04:47:12;12.0;78.7
79356;SHT31;68825;51.978;5.654;2023-04-01T04:49:42;12.0;78.6
79356;SHT31;68825;51.978;5.654;2023-04-01T04:52:11;12.0;78.7
79356;SHT31;68825;51.978;5.654;2023-04-01T04:54:40;12.0;78.6
79356;SHT31;68825;51.978;5.654;2023-04-01T04:57:09;12.0;78.6
79356;SHT31;68825;51.978;5.654;2023-04-01T04:59:37;12.0;78.6
79356;SHT31;68825;51.978;5.654;2023-04-01T05:02:06;12.0;78.8
79356;SHT31;68825;51.978;5.654;2023-04-01T05:04:36;12.0;78.8
79356;SHT31;68825;51.978;5.654;2023-04-01T05:07:05;12.1;78.8
79356;SHT31;68825;51.978;5.654;2023-04-01T05:09:33;12.1;78.6
79356;SHT31;68825;51.978;5.654;2023-04-01T05:12:02;12.1;78.5
79356;SHT31;68825;51.978;5.654;2023-04-01T05:14:31;12.1;78.5
79356;SHT31;68825;51.978;5.654;2023-04-01T05:16:59;12.2;78.5
79356;SHT31;68825;51.978;5.654;2023-04-01T05:19:28;12.2;78.7
79356;SHT31;68825;51.978;5.654;2023-04-01T05:21:56;12.2;78.6
79356;SHT31;68825;51.978;5.654;2023-04-01T05:24:25;12.2;78.6
79356;SHT31;68825;51.978;5.654;2023-04-01T05:26:53;12.2;78.7
79356;SHT31;68825;51.978;5.654;2023-04-01T05:29:22;12.3;78.8
79356;SHT31;68825;51.978;5.654;2023-04-01T05:31:51;12.3;78.7
79356;SHT31;68825;51.978;5.654;2023-04-01T05:34:20;12.3;78.7
79356;SHT31;68825;51.978;5.654;2023-04-01T05:36:48;12.3;78.7
79356;SHT31;68825;51.978;5.654;2023-04-01T05:39:18;12.3;78.8
79356;SHT31;68825;51.978;5.654;2023-04-01T05:41:48;12.2;79.0
79356;SHT31;68825;51.978;5.654;2023-04-01T05:44:19;12.2;79.2
79356;SHT31;68825;51.978;5.654;2023-04-01T05:46:48;12.2;79.2
79356;SHT31;68825;51.978;5.654;2023-04-01T05:49:17;12.2;79.4
79356;SHT31;68825;51.978;5.654;2023-04-01T05:51:46;12.2;79.7
79356;SHT31;68825;51.978;5.654;2023-04-01T05:54:15;12.1;79.9
79356;SHT31;68825;51.978;5.654;2023-04-01T05:56:45;12.1;80.2
79356;SHT31;68825;51.978;5.654;2023-04-01T05:59:14;12.1;80.3
79356;SHT31;68825;51.978;5.654;2023-04-01T06:01:45;12.1;80.3
79356;SHT31;68825;51.978;5.654;2023-04-01T06:04:16;12.1;80.4
79356;SHT31;68825;51.978;5.654;2023-04-01T06:06:45;12.1;80.7
79356;SHT31;68825;51.978;5.654;2023-04-01T06:09:16;12.1;80.6
79356;SHT31;68825;51.978;5.654;2023-04-01T06:12:06;12.1;80.5
79356;SHT31;68825;51.978;5.654;2023-04-01T06:14:46;12.1;80.7
79356;SHT31;68825;51.978;5.654;2023-04-01T06:17:30;12.1;80.8
79356;SHT31;68825;51.978;5.654;2023-04-01T06:20:10;12.0;81.0
79356;SHT31;68825;51.978;5.654;2023-04-01T06:22:48;12.0;81.1
79356;SHT31;68825;51.978;5.654;2023-04-01T06:25:40;12.0;81.0
79356;SHT31;68825;51.978;5.654;2023-04-01T06:32:59;12.0;81.4
79356;SHT31;68825;51.978;5.654;2023-04-01T06:36:04;12.0;81.5
79356;SHT31;68825;51.978;5.654;2023-04-01T06:38:48;12.1;81.7
79356;SHT31;68825;51.978;5.654;2023-04-01T06:41:55;12.1;81.5
79356;SHT31;68825;51.978;5.654;2023-04-01T06:44:36;12.1;81.1
79356;SHT31;68825;51.978;5.654;2023-04-01T06:47:18;12.2;81.1
79356;SHT31;68825;51.978;5.654;2023-04-01T06:49:59;12.2;80.6
79356;SHT31;68825;51.978;5.654;2023-04-01T06:52:41;12.2;80.6
79356;SHT31;68825;51.978;5.654;2023-04-01T06:55:36;12.2;80.2
79356;SHT31;68825;51.978;5.654;2023-04-01T06:58:16;12.2;80.5
79356;SHT31;68825;51.978;5.654;2023-04-01T07:00:49;12.2;80.6
79356;SHT31;68825;51.978;5.654;2023-04-01T07:03:26;12.2;80.7
79356;SHT31;68825;51.978;5.654;2023-04-01T07:06:01;12.2;80.7
79356;SHT31;68825;51.978;5.654;2023-04-01T07:08:35;12.2;80.8
79356;SHT31;68825;51.978;5.654;2023-04-01T07:11:09;12.3;80.6
79356;SHT31;68825;51.978;5.654;2023-04-01T07:13:43;12.3;80.5
79356;SHT31;68825;51.978;5.654;2023-04-01T07:16:18;12.3;80.6
79356;SHT31;68825;51.978;5.654;2023-04-01T07:18:52;12.3;80.7
79356;SHT31;68825;51.978;5.654;2023-04-01T07:21:28;12.3;80.8
79356;SHT31;68825;51.978;5.654;2023-04-01T07:24:03;12.3;80.5
79356;SHT31;68825;51.978;5.654;2023-04-01T07:26:34;12.3;80.9
79356;SHT31;68825;51.978;5.654;2023-04-01T07:29:05;12.3;81.0
79356;SHT31;68825;51.978;5.654;2023-04-01T07:32:41;12.3;80.9
79356;SHT31;68825;51.978;5.654;2023-04-01T07:35:26;12.3;81.0
79356;SHT31;68825;51.978;5.654;2023-04-01T07:38:11;12.3;80.8
79356;SHT31;68825;51.978;5.654;2023-04-01T07:40:49;12.3;80.8
79356;SHT31;68825;51.978;5.654;2023-04-01T07:43:37;12.2;80.8
79356;SHT31;68825;51.978;5.654;2023-04-01T07:46:20;12.2;81.2
79356;SHT31;68825;51.978;5.654;2023-04-01T07:48:55;12.2;81.2
79356;SHT31;68825;51.978;5.654;2023-04-01T07:51:31;12.2;81.5
79356;SHT31;68825;51.978;5.654;2023-04-01T07:54:11;12.2;81.3
79356;SHT31;68825;51.978;5.654;2023-04-01T07:56:48;12.2;81.2
79356;SHT31;68825;51.978;5.654;2023-04-01T07:59:27;12.1;81.1
79356;SHT31;68825;51.978;5.654;2023-04-01T08:02:09;12.1;81.1
79356;SHT31;68825;51.978;5.654;2023-04-01T08:04:53;12.1;81.6
79356;SHT31;68825;51.978;5.654;2023-04-01T08:07:27;12.1;81.4
79356;SHT31;68825;51.978;5.654;2023-04-01T08:10:05;12.1;81.9
79356;SHT31;68825;51.978;5.654;2023-04-01T08:12:46;12.1;82.2
79356;SHT31;68825;51.978;5.654;2023-04-01T08:15:21;12.1;81.8
79356;SHT31;68825;51.978;5.654;2023-04-01T08:18:06;12.1;82.0
79356;SHT31;68825;51.978;5.654;2023-04-01T08:20:39;12.1;82.2
79356;SHT31;68825;51.978;5.654;2023-04-01T08:23:14;12.1;82.3
79356;SHT31;68825;51.978;5.654;2023-04-01T08:25:49;12.1;82.3
79356;SHT31;68825;51.978;5.654;2023-04-01T08:28:25;12.1;82.4
79356;SHT31;68825;51.978;5.654;2023-04-01T08:31:01;12.1;82.7
79356;SHT31;68825;51.978;5.654;2023-04-01T08:33:32;12.1;82.7
79356;SHT31;68825;51.978;5.654;2023-04-01T08:36:05;12.1;82.9
79356;SHT31;68825;51.978;5.654;2023-04-01T08:38:41;12.2;82.7
79356;SHT31;68825;51.978;5.654;2023-04-01T08:41:30;12.2;83.0
79356;SHT31;68825;51.978;5.654;2023-04-01T08:44:58;12.2;83.0
79356;SHT31;68825;51.978;5.654;2023-04-01T08:47:42;12.2;82.7
79356;SHT31;68825;51.978;5.654;2023-04-01T08:50:49;12.2;83.1
79356;SHT31;68825;51.978;5.654;2023-04-01T08:53:31;12.2;83.3
79356;SHT31;68825;51.978;5.654;2023-04-01T08:56:14;12.2;82.9
79356;SHT31;68825;51.978;5.654;2023-04-01T08:59:49;12.2;82.8
79356;SHT31;68825;51.978;5.654;2023-04-01T09:07:19;12.1;83.0
79356;SHT31;68825;51.978;5.654;2023-04-01T09:10:06;12.1;83.4
79356;SHT31;68825;51.978;5.654;2023-04-01T09:13:12;12.1;82.7
79356;SHT31;68825;51.978;5.654;2023-04-01T09:16:04;12.1;82.8
79356;SHT31;68825;51.978;5.654;2023-04-01T09:18:52;12.1;83.1
79356;SHT31;68825;51.978;5.654;2023-04-01T09:21:36;12.1;83.5
79356;SHT31;68825;51.978;5.654;2023-04-01T09:24:38;12.1;83.3
79356;SHT31;68825;51.978;5.654;2023-04-01T09:27:23;12.2;83.3
79356;SHT31;68825;51.978;5.654;2023-04-01T09:31:28;12.2;83.1
79356;SHT31;68825;51.978;5.654;2023-04-01T09:34:41;12.2;83.2
79356;SHT31;68825;51.978;5.654;2023-04-01T09:37:24;12.3;83.4
79356;SHT31;68825;51.978;5.654;2023-04-01T09:40:13;12.3;82.9
79356;SHT31;68825;51.978;5.654;2023-04-01T09:42:45;12.3;83.1
79356;SHT31;68825;51.978;5.654;2023-04-01T09:45:47;12.3;82.7
79356;SHT31;68825;51.978;5.654;2023-04-01T09:48:34;12.4;82.9
79356;SHT31;68825;51.978;5.654;2023-04-01T09:51:20;12.4;83.1
79356;SHT31;68825;51.978;5.654;2023-04-01T09:54:01;12.4;83.3
79356;SHT31;68825;51.978;5.654;2023-04-01T09:58:18;12.5;83.2
79356;SHT31;68825;51.978;5.654;2023-04-01T10:01:38;12.5;82.8
79356;SHT31;68825;51.978;5.654;2023-04-01T10:06:06;12.6;82.5
79356;SHT31;68825;51.978;5.654;2023-04-01T10:10:33;12.7;82.4
79356;SHT31;68825;51.978;5.654;2023-04-01T10:18:17;12.9;81.8
79356;SHT31;68825;51.978;5.654;2023-04-01T10:21:11;12.9;81.2
79356;SHT31;68825;51.978;5.654;2023-04-01T10:24:07;13.0;81.0
79356;SHT31;68825;51.978;5.654;2023-04-01T10:27:17;13.1;83.6
79356;SHT31;68825;51.978;5.654;2023-04-01T10:30:53;13.2;81.0
79356;SHT31;68825;51.978;5.654;2023-04-01T10:33:53;13.3;82.8
79356;SHT31;68825;51.978;5.654;2023-04-01T10:36:47;13.4;80.8
79356;SHT31;68825;51.978;5.654;2023-04-01T10:39:34;13.6;81.2
79356;SHT31;68825;51.978;5.654;2023-04-01T10:42:29;13.6;78.4
79356;SHT31;68825;51.978;5.654;2023-04-01T10:45:35;13.7;77.8
79356;SHT31;68825;51.978;5.654;2023-04-01T10:48:25;13.8;78.0
79356;SHT31;68825;51.978;5.654;2023-04-01T10:56:07;13.9;78.5
79356;SHT31;68825;51.978;5.654;2023-04-01T10:59:20;13.9;77.2
79356;SHT31;68825;51.978;5.654;2023-04-01T11:03:09;14.0;76.7
79356;SHT31;68825;51.978;5.654;2023-04-01T11:08:05;14.0;74.8
79356;SHT31;68825;51.978;5.654;2023-04-01T11:13:08;14.0;76.9
79356;SHT31;68825;51.978;5.654;2023-04-01T11:16:14;13.9;75.9
79356;SHT31;68825;51.978;5.654;2023-04-01T11:20:32;13.8;76.0
79356;SHT31;68825;51.978;5.654;2023-04-01T11:23:24;13.7;76.4
79356;SHT31;68825;51.978;5.654;2023-04-01T11:26:04;13.7;77.4
79356;SHT31;68825;51.978;5.654;2023-04-01T11:29:06;13.6;77.2
79356;SHT31;68825;51.978;5.654;2023-04-01T11:31:40;13.6;77.6
79356;SHT31;68825;51.978;5.654;2023-04-01T11:34:35;13.6;78.4
79356;SHT31;68825;51.978;5.654;2023-04-01T11:37:18;13.5;77.5
79356;SHT31;68825;51.978;5.654;2023-04-01T11:40:02;13.5;78.5
79356;SHT31;68825;51.978;5.654;2023-04-01T11:42:43;13.5;77.9
79356;SHT31;68825;51.978;5.654;2023-04-01T11:45:23;13.5;77.0
79356;SHT31;68825;51.978;5.654;2023-04-01T11:48:11;13.5;77.4
79356;SHT31;68825;51.978;5.654;2023-04-01T11:50:59;13.5;76.6
79356;SHT31;68825;51.978;5.654;2023-04-01T11:53:41;13.5;76.8
79356;SHT31;68825;51.978;5.654;2023-04-01T11:56:24;13.5;78.0
79356;SHT31;68825;51.978;5.654;2023-04-01T12:02:10;13.3;79.5
79356;SHT31;68825;51.978;5.654;2023-04-01T12:05:41;13.2;80.1
79356;SHT31;68825;51.978;5.654;2023-04-01T12:08:18;13.1;80.4
79356;SHT31;68825;51.978;5.654;2023-04-01T12:10:59;13.0;80.7
79356;SHT31;68825;51.978;5.654;2023-04-01T12:13:37;13.0;80.9
79356;SHT31;68825;51.978;5.654;2023-04-01T12:16:20;12.9;81.6
79356;SHT31;68825;51.978;5.654;2023-04-01T12:18:55;12.9;81.8
79356;SHT31;68825;51.978;5.654;2023-04-01T12:21:34;12.9;81.3
79356;SHT31;68825;51.978;5.654;2023-04-01T12:24:32;12.9;81.0
79356;SHT31;68825;51.978;5.654;2023-04-01T12:27:16;12.9;81.2
79356;SHT31;68825;51.978;5.654;2023-04-01T12:30:09;12.9;81.2
79356;SHT31;68825;51.978;5.654;2023-04-01T12:32:48;12.9;80.7
79356;SHT31;68825;51.978;5.654;2023-04-01T12:35:32;12.9;80.2
79356;SHT31;68825;51.978;5.654;2023-04-01T12:38:20;12.9;80.7
79356;SHT31;68825;51.978;5.654;2023-04-01T12:41:04;12.9;82.1
79356;SHT31;68825;51.978;5.654;2023-04-01T12:43:57;13.0;81.1
79356;SHT31;68825;51.978;5.654;2023-04-01T12:46:38;13.0;81.5
79356;SHT31;68825;51.978;5.654;2023-04-01T12:49:19;13.0;81.1
79356;SHT31;68825;51.978;5.654;2023-04-01T12:52:12;13.0;81.7
79356;SHT31;68825;51.978;5.654;2023-04-01T12:55:55;13.1;80.6
79356;SHT31;68825;51.978;5.654;2023-04-01T12:59:04;13.1;81.6
79356;SHT31;68825;51.978;5.654;2023-04-01T13:01:46;13.1;80.7
79356;SHT31;68825;51.978;5.654;2023-04-01T13:04:58;13.2;81.5
79356;SHT31;68825;51.978;5.654;2023-04-01T13:07:38;13.3;80.5
79356;SHT31;68825;51.978;5.654;2023-04-01T13:10:29;13.3;81.2
79356;SHT31;68825;51.978;5.654;2023-04-01T13:13:27;13.3;81.2
79356;SHT31;68825;51.978;5.654;2023-04-01T13:16:07;13.4;80.7
79356;SHT31;68825;51.978;5.654;2023-04-01T13:18:50;13.5;79.8
79356;SHT31;68825;51.978;5.654;2023-04-01T13:21:31;13.5;79.8
79356;SHT31;68825;51.978;5.654;2023-04-01T13:24:08;13.5;80.0
79356;SHT31;68825;51.978;5.654;2023-04-01T13:26:48;13.5;80.8
79356;SHT31;68825;51.978;5.654;2023-04-01T13:29:23;13.5;80.6
79356;SHT31;68825;51.978;5.654;2023-04-01T13:32:08;13.5;80.6
79356;SHT31;68825;51.978;5.654;2023-04-01T13:34:51;13.4;80.1
79356;SHT31;68825;51.978;5.654;2023-04-01T13:37:36;13.4;80.1
79356;SHT31;68825;51.978;5.654;2023-04-01T13:40:25;13.4;79.7
79356;SHT31;68825;51.978;5.654;2023-04-01T13:42:58;13.3;80.1
79356;SHT31;68825;51.978;5.654;2023-04-01T13:45:38;13.2;80.9
79356;SHT31;68825;51.978;5.654;2023-04-01T13:48:27;13.2;81.0
79356;SHT31;68825;51.978;5.654;2023-04-01T13:54:17;13.1;81.8
79356;SHT31;68825;51.978;5.654;2023-04-01T13:57:00;13.1;81.6
79356;SHT31;68825;51.978;5.654;2023-04-01T14:02:46;13.0;83.0
79356;SHT31;68825;51.978;5.654;2023-04-01T14:05:39;13.0;82.8
79356;SHT31;68825;51.978;5.654;2023-04-01T14:08:19;13.0;83.5
79356;SHT31;68825;51.978;5.654;2023-04-01T14:10:59;13.0;82.7
79356;SHT31;68825;51.978;5.654;2023-04-01T14:13:40;13.0;82.8
79356;SHT31;68825;51.978;5.654;2023-04-01T14:16:25;12.9;83.6
79356;SHT31;68825;51.978;5.654;2023-04-01T14:19:16;12.9;83.5
79356;SHT31;68825;51.978;5.654;2023-04-01T14:21:52;13.0;83.5
79356;SHT31;68825;51.978;5.654;2023-04-01T14:24:45;13.0;83.2
79356;SHT31;68825;51.978;5.654;2023-04-01T14:27:38;13.0;83.4
79356;SHT31;68825;51.978;5.654;2023-04-01T14:30:32;13.0;82.7
79356;SHT31;68825;51.978;5.654;2023-04-01T14:33:15;13.0;82.7
79356;SHT31;68825;51.978;5.654;2023-04-01T14:35:58;13.0;82.9
79356;SHT31;68825;51.978;5.654;2023-04-01T14:38:42;13.1;82.8
79356;SHT31;68825;51.978;5.654;2023-04-01T14:41:21;13.1;83.2
79356;SHT31;68825;51.978;5.654;2023-04-01T14:44:58;13.1;82.9
79356;SHT31;68825;51.978;5.654;2023-04-01T14:47:46;13.1;83.2
79356;SHT31;68825;51.978;5.654;2023-04-01T14:50:18;13.1;82.9
79356;SHT31;68825;51.978;5.654;2023-04-01T14:52:55;13.1;83.2
79356;SHT31;68825;51.978;5.654;2023-04-01T14:55:47;13.1;83.2
79356;SHT31;68825;51.978;5.654;2023-04-01T14:58:20;13.2;82.8
79356;SHT31;68825;51.978;5.654;2023-04-01T15:01:13;13.2;83.3
79356;SHT31;68825;51.978;5.654;2023-04-01T15:03:53;13.2;83.6
79356;SHT31;68825;51.978;5.654;2023-04-01T15:07:24;13.2;82.7
79356;SHT31;68825;51.978;5.654;2023-04-01T15:10:01;13.3;82.3
79356;SHT31;68825;51.978;5.654;2023-04-01T15:12:40;13.3;81.9
79356;SHT31;68825;51.978;5.654;2023-04-01T15:15:27;13.3;82.4
79356;SHT31;68825;51.978;5.654;2023-04-01T15:18:09;13.3;82.5
79356;SHT31;68825;51.978;5.654;2023-04-01T15:21:05;13.3;82.8
79356;SHT31;68825;51.978;5.654;2023-04-01T15:23:48;13.3;82.9
79356;SHT31;68825;51.978;5.654;2023-04-01T15:26:54;13.3;82.8
79356;SHT31;68825;51.978;5.654;2023-04-01T15:29:41;13.3;82.6
79356;SHT31;68825;51.978;5.654;2023-04-01T15:32:17;13.3;81.7
79356;SHT31;68825;51.978;5.654;2023-04-01T15:34:59;13.3;81.0
79356;SHT31;68825;51.978;5.654;2023-04-01T15:37:40;13.3;80.7
79356;SHT31;68825;51.978;5.654;2023-04-01T15:40:22;13.2;81.5
79356;SHT31;68825;51.978;5.654;2023-04-01T15:43:07;13.1;81.9
79356;SHT31;68825;51.978;5.654;2023-04-01T15:45:54;13.1;82.2
79356;SHT31;68825;51.978;5.654;2023-04-01T15:48:35;13.1;82.1
79356;SHT31;68825;51.978;5.654;2023-04-01T15:51:12;13.1;81.8
79356;SHT31;68825;51.978;5.654;2023-04-01T15:54:02;13.0;82.4
79356;SHT31;68825;51.978;5.654;2023-04-01T15:56:51;13.0;82.6
79356;SHT31;68825;51.978;5.654;2023-04-01T15:59:36;13.0;82.1
79356;SHT31;68825;51.978;5.654;2023-04-01T16:02:19;12.9;81.6
79356;SHT31;68825;51.978;5.654;2023-04-01T16:04:55;12.9;82.0
79356;SHT31;68825;51.978;5.654;2023-04-01T16:07:42;12.9;81.7
79356;SHT31;68825;51.978;5.654;2023-04-01T16:10:37;12.9;82.5
79356;SHT31;68825;51.978;5.654;2023-04-01T16:13:24;12.8;82.9
79356;SHT31;68825;51.978;5.654;2023-04-01T16:16:07;12.8;81.6
79356;SHT31;68825;51.978;5.654;2023-04-01T16:19:07;12.8;82.3
79356;SHT31;68825;51.978;5.654;2023-04-01T16:21:48;12.8;81.6
79356;SHT31;68825;51.978;5.654;2023-04-01T16:24:24;12.8;81.9
79356;SHT31;68825;51.978;5.654;2023-04-01T16:26:57;12.8;81.3
79356;SHT31;68825;51.978;5.654;2023-04-01T16:29:36;12.7;81.5
79356;SHT31;68825;51.978;5.654;2023-04-01T16:32:27;12.7;80.9
79356;SHT31;68825;51.978;5.654;2023-04-01T16:35:13;12.7;81.6
79356;SHT31;68825;51.978;5.654;2023-04-01T16:37:49;12.7;81.2
79356;SHT31;68825;51.978;5.654;2023-04-01T16:40:26;12.7;81.3
79356;SHT31;68825;51.978;5.654;2023-04-01T16:43:06;12.7;81.7
79356;SHT31;68825;51.978;5.654;2023-04-01T16:45:45;12.6;81.2
79356;SHT31;68825;51.978;5.654;2023-04-01T16:48:17;12.6;81.7
79356;SHT31;68825;51.978;5.654;2023-04-01T16:50:55;12.6;81.0
79356;SHT31;68825;51.978;5.654;2023-04-01T16:53:37;12.6;81.4
79356;SHT31;68825;51.978;5.654;2023-04-01T16:56:14;12.6;81.8
79356;SHT31;68825;51.978;5.654;2023-04-01T16:58:57;12.6;81.7
79356;SHT31;68825;51.978;5.654;2023-04-01T17:01:36;12.6;80.8
79356;SHT31;68825;51.978;5.654;2023-04-01T17:04:16;12.6;81.1
79356;SHT31;68825;51.978;5.654;2023-04-01T17:06:55;12.6;81.0
79356;SHT31;68825;51.978;5.654;2023-04-01T17:09:42;12.6;80.9
79356;SHT31;68825;51.978;5.654;2023-04-01T17:12:23;12.5;80.4
79356;SHT31;68825;51.978;5.654;2023-04-01T17:15:02;12.5;80.2
79356;SHT31;68825;51.978;5.654;2023-04-01T17:17:45;12.5;80.4
79356;SHT31;68825;51.978;5.654;2023-04-01T17:20:29;12.4;80.3
79356;SHT31;68825;51.978;5.654;2023-04-01T17:23:11;12.4;80.0
79356;SHT31;68825;51.978;5.654;2023-04-01T17:25:53;12.4;80.3
79356;SHT31;68825;51.978;5.654;2023-04-01T17:28:36;12.3;80.0
79356;SHT31;68825;51.978;5.654;2023-04-01T17:31:19;12.3;79.7
79356;SHT31;68825;51.978;5.654;2023-04-01T17:34:43;12.5;78.7
79356;SHT31;68825;51.978;5.654;2023-04-01T17:37:29;12.5;78.4
79356;SHT31;68825;51.978;5.654;2023-04-01T17:40:15;12.4;78.8
79356;SHT31;68825;51.978;5.654;2023-04-01T17:42:56;12.4;78.0
79356;SHT31;68825;51.978;5.654;2023-04-01T17:45:36;12.3;78.7
79356;SHT31;68825;51.978;5.654;2023-04-01T17:48:21;12.3;78.5
79356;SHT31;68825;51.978;5.654;2023-04-01T17:51:11;12.2;77.9
79356;SHT31;68825;51.978;5.654;2023-04-01T17:53:50;12.2;78.1
79356;SHT31;68825;51.978;5.654;2023-04-01T17:56:32;12.1;79.4
79356;SHT31;68825;51.978;5.654;2023-04-01T17:59:13;12.1;79.8
79356;SHT31;68825;51.978;5.654;2023-04-01T18:01:57;12.1;79.3
79356;SHT31;68825;51.978;5.654;2023-04-01T18:06:29;12.0;78.7
79356;SHT31;68825;51.978;5.654;2023-04-01T18:09:07;11.9;78.9
79356;SHT31;68825;51.978;5.654;2023-04-01T18:11:49;11.9;78.8
79356;SHT31;68825;51.978;5.654;2023-04-01T18:14:33;11.9;79.0
79356;SHT31;68825;51.978;5.654;2023-04-01T18:17:21;11.8;78.1